Time;durP1;ratioP1;P1;durP2;ratioP2;P2;SDS_P1;SDS_P2;PMS_P1;PMS_P2;Temp;Humidity;BMP_temperature;BMP_pressure;BME280_temperature;BME280_humidity;BME280_pressure;Samples;Min_cycle;Max_cycle;Signal;HPM_P1;HPM_P2
2021/03/05 00:00:34;;;;;;;38.53;19.12;;;;;;;3.71;69.55;98384.05;1854945;77;21129;-63
2021/03/05 00:03:02;;;;;;;37.70;18.73;;;;;;;3.69;69.58;98386.58;1855049;77;21261;-59
2021/03/05 00:05:35;;;;;;;34.43;17.45;;;;;;;3.65;69.64;98382.20;1854843;77;21121;-62
2021/03/05 00:08:07;;;;;;;38.78;18.77;;;;;;;3.64;69.70;98380.48;1855037;77;21139;-63
2021/03/05 00:10:38;;;;;;;36.40;18.37;;;;;;;3.63;69.67;98385.11;1855074;77;21127;-63
2021/03/05 00:13:06;;;;;;;37.98;18.65;;;;;;;3.61;69.64;98379.51;1782903;80;21544;-60
2021/03/05 00:15:38;;;;;;;40.08;17.90;;;;;;;3.59;69.55;98384.59;1855017;77;21110;-64
2021/03/05 00:18:06;;;;;;;;;;;;;;;3.56;69.52;98393.43;1785320;80;21146;-59
2021/03/05 00:20:37;;;;;;;28.20;14.75;;;;;;;3.51;69.36;98393.70;1781031;80;20147;-60
2021/03/05 00:23:05;;;;;;;27.52;14.47;;;;;;;3.43;69.15;98384.94;1782631;80;21154;-59
2021/03/05 00:25:33;;;;;;;32.73;15.60;;;;;;;3.39;69.13;98394.61;1855020;77;21127;-60
2021/03/05 00:28:01;;;;;;;29.27;15.28;;;;;;;3.33;69.26;98403.33;1782904;80;21142;-61
2021/03/05 00:30:29;;;;;;;32.17;16.05;;;;;;;3.30;69.40;98404.52;1854985;77;21272;-59
2021/03/05 00:32:56;;;;;;;33.13;15.25;;;;;;;3.33;69.37;98403.33;1855246;77;21513;-59
2021/03/05 00:35:24;;;;;;;28.35;13.75;;;;;;;3.33;69.45;98404.19;1782829;80;21142;-63
2021/03/05 00:37:53;;;;;;;31.60;15.20;;;;;;;3.26;69.31;98395.51;1855049;77;21118;-62
2021/03/05 00:40:22;;;;;;;26.75;12.98;;;;;;;3.22;69.39;98394.95;1855173;77;21132;-60
2021/03/05 00:42:52;;;;;;;28.10;13.08;;;;;;;3.19;69.49;98389.76;1855126;77;21138;-62
2021/03/05 00:45:22;;;;;;;27.40;14.30;;;;;;;3.14;69.57;98398.95;1781476;80;21633;-61
2021/03/05 00:47:52;;;;;;;29.32;13.90;;;;;;;3.15;69.80;98394.30;1846182;78;21308;-61
2021/03/05 00:50:20;;;;;;;24.05;12.90;;;;;;;3.16;69.71;98396.05;1774683;80;21526;-62
2021/03/05 00:52:50;;;;;;;28.42;15.43;;;;;;;3.12;69.87;98398.03;1846323;78;21557;-64
2021/03/05 00:55:19;;;;;;;26.17;13.98;;;;;;;3.10;69.91;98392.02;1822695;78;21161;-60
2021/03/05 00:57:47;;;;;;;30.80;14.58;;;;;;;3.10;70.00;98389.88;1774614;80;21695;-61
2021/03/05 01:00:16;;;;;;;24.02;12.78;;;;;;;3.11;70.08;98382.30;1846281;78;21574;-61
2021/03/05 01:02:45;;;;;;;25.12;13.03;;;;;;;3.16;70.03;98387.13;1774605;81;21115;-60
2021/03/05 01:05:13;;;;;;;28.47;14.95;;;;;;;3.18;69.98;98382.94;1846147;77;21135;-60
2021/03/05 01:07:41;;;;;;;28.65;13.03;;;;;;;3.16;70.00;98375.65;1774466;81;21134;-58
2021/03/05 01:10:11;;;;;;;29.05;13.95;;;;;;;3.17;70.09;98372.27;1822693;78;21174;-61
2021/03/05 01:12:39;;;;;;;27.45;12.47;;;;;;;3.14;70.21;98372.18;1774550;81;21139;-62
2021/03/05 01:15:09;;;;;;;29.72;14.28;;;;;;;3.09;70.35;98375.00;1846184;78;21127;-60
2021/03/05 01:17:37;;;;;;;27.22;12.43;;;;;;;3.00;70.66;98377.25;1774459;81;21327;-61
2021/03/05 01:20:14;;;;;;;29.42;14.90;;;;;;;2.98;70.87;98389.11;1846030;78;21139;-60
2021/03/05 01:22:41;;;;;;;29.10;13.60;;;;;;;2.97;71.00;98384.80;1774151;81;21566;-59
2021/03/05 01:25:13;;;;;;;32.08;14.70;;;;;;;2.97;71.23;98393.73;1846166;78;21269;-62
2021/03/05 01:27:41;;;;;;;33.35;15.00;;;;;;;2.92;71.37;98387.20;1846060;77;21143;-60
2021/03/05 01:30:11;;;;;;;33.28;16.02;;;;;;;2.92;71.54;98394.84;1846025;78;21135;-61
2021/03/05 01:32:39;;;;;;;30.77;14.23;;;;;;;2.94;71.63;98397.45;1845974;78;21131;-60
2021/03/05 01:35:11;;;;;;;31.85;14.45;;;;;;;2.93;71.81;98394.47;1845999;77;21676;-61
2021/03/05 01:37:39;;;;;;;29.95;14.47;;;;;;;2.88;71.91;98399.41;1774809;81;21683;-60
2021/03/05 01:40:15;;;;;;;31.40;14.30;;;;;;;2.86;72.10;98395.08;1846054;77;21162;-61
2021/03/05 01:42:43;;;;;;;31.57;14.90;;;;;;;2.85;72.20;98400.97;1774548;80;21261;-62
2021/03/05 01:45:15;;;;;;;29.20;15.08;;;;;;;2.82;72.43;98405.18;1846241;77;21197;-61
2021/03/05 01:47:45;;;;;;;32.85;14.75;;;;;;;2.80;72.49;98401.71;1774501;81;21142;-62
2021/03/05 01:50:21;;;;;;;32.23;15.50;;;;;;;2.82;72.59;98400.08;1846291;78;21135;-61
2021/03/05 01:52:53;;;;;;;31.30;14.93;;;;;;;2.86;72.56;98407.82;1845645;77;21130;-61
2021/03/05 01:55:21;;;;;;;35.58;17.45;;;;;;;2.93;72.64;98411.03;1774561;80;21546;-59
2021/03/05 01:57:49;;;;;;;34.05;16.27;;;;;;;2.96;72.62;98413.67;1774660;80;21684;-61
2021/03/05 02:00:33;;;;;;;34.92;16.90;;;;;;;2.92;72.65;98410.14;1846114;78;21197;-59
2021/03/05 02:03:01;;;;;;;35.25;17.87;;;;;;;2.81;72.85;98414.89;1845643;77;21095;-60
2021/03/05 02:05:31;;;;;;;32.98;16.40;;;;;;;2.79;73.10;98415.66;1774593;81;21150;-60
2021/03/05 02:07:59;;;;;;;37.20;16.97;;;;;;;2.81;73.23;98417.86;1846114;77;21269;-59
2021/03/05 02:10:27;;;;;;;37.28;16.42;;;;;;;2.83;73.36;98417.09;1846175;78;21253;-58
2021/03/05 02:12:55;;;;;;;40.12;17.57;;;;;;;2.86;73.40;98419.29;1846047;78;21154;-59
2021/03/05 02:15:24;;;;;;;33.00;15.50;;;;;;;2.89;73.39;98412.59;1846192;78;21265;-59
2021/03/05 02:18:12;;;;;;;33.50;15.03;;;;;;;2.83;73.58;98415.82;1846303;78;21556;-63
2021/03/05 02:21:05;;;;;;;35.50;17.02;;;;;;;2.78;73.79;98414.80;1845996;78;21107;-60
2021/03/05 02:23:55;;;;;;;37.70;16.50;;;;;;;2.80;73.94;98420.82;1845992;78;21150;-61
2021/03/05 02:26:56;;;;;;;31.68;15.05;;;;;;;2.85;73.88;98423.53;1846032;77;21265;-60
2021/03/05 02:29:51;;;;;;;36.73;15.93;;;;;;;2.86;74.09;98429.06;1774639;81;21167;-59
2021/03/05 02:32:23;;;;;;;39.45;16.65;;;;;;;2.74;74.59;98424.42;1846029;78;21111;-60
2021/03/05 02:34:52;;;;;;;33.60;16.60;;;;;;;2.67;74.81;98430.54;1774397;81;21151;-62
2021/03/05 02:37:24;;;;;;;39.65;17.37;;;;;;;2.65;75.12;98431.78;1845465;77;21558;-60
2021/03/05 02:40:03;;;;;;;40.55;17.10;;;;;;;2.67;75.28;98433.98;1822987;78;21518;-59
2021/03/05 02:42:44;;;;;;;34.48;16.55;;;;;;;2.68;75.46;98434.42;1771303;81;21127;-60
2021/03/05 02:45:18;;;;;;;36.55;17.17;;;;;;;2.68;75.61;98440.79;1818595;78;21525;-65
2021/03/05 02:47:50;;;;;;;39.40;17.17;;;;;;;2.70;75.70;98449.36;1829928;77;21509;-62
2021/03/05 02:50:21;;;;;;;39.60;18.45;;;;;;;2.68;75.80;98459.89;1822505;78;21159;-61
2021/03/05 02:52:51;;;;;;;42.05;18.00;;;;;;;2.75;75.84;98456.75;1800651;77;21696;-63
2021/03/05 02:55:21;;;;;;;36.83;18.02;;;;;;;2.78;75.75;98454.30;1806107;77;21260;-62
2021/03/05 02:57:53;;;;;;;39.73;17.77;;;;;;;2.77;75.80;98455.50;1827007;77;21138;-65
2021/03/05 03:00:24;;;;;;;37.50;17.87;;;;;;;2.76;75.84;98452.09;1821437;79;21250;-61
2021/03/05 03:02:54;;;;;;;44.15;17.07;;;;;;;2.75;75.91;98451.66;1821944;79;21543;-58
2021/03/05 03:05:24;;;;;;;41.30;18.10;;;;;;;2.74;76.02;98454.14;1826063;77;21132;-56
2021/03/05 03:07:55;;;;;;;41.85;17.67;;;;;;;2.67;76.16;98458.56;1820944;77;21652;-59
2021/03/05 03:10:28;;;;;;;39.58;17.90;;;;;;;2.65;76.29;98462.34;1825934;77;21276;-61
2021/03/05 03:12:59;;;;;;;39.25;17.82;;;;;;;2.66;76.45;98455.16;1821327;79;21141;-60
2021/03/05 03:15:31;;;;;;;42.50;19.77;;;;;;;2.61;76.53;98455.41;1821568;79;21134;-60
2021/03/05 03:18:02;;;;;;;39.57;18.33;;;;;;;2.59;76.68;98459.16;1821630;79;21265;-58
2021/03/05 03:20:30;;;;;;;43.90;19.02;;;;;;;2.58;76.96;98468.04;1821420;79;21273;-60
2021/03/05 03:22:59;;;;;;;39.53;18.42;;;;;;;2.58;77.04;98471.45;1821393;79;21127;-62
2021/03/05 03:25:27;;;;;;;37.83;18.17;;;;;;;2.59;77.00;98473.17;1821362;79;21148;-61
2021/03/05 03:27:56;;;;;;;48.28;20.57;;;;;;;2.60;77.06;98477.88;1821436;79;21159;-61
2021/03/05 03:30:24;;;;;;;43.52;20.15;;;;;;;2.60;77.24;98476.61;1821678;79;21515;-61
2021/03/05 03:32:53;;;;;;;45.30;18.92;;;;;;;2.62;77.24;98477.53;1821648;78;21658;-63
2021/03/05 03:35:21;;;;;;;35.17;16.25;;;;;;;2.67;77.41;98482.38;1826019;77;21538;-61
2021/03/05 03:37:52;;;;;;;41.40;18.17;;;;;;;2.68;77.57;98476.87;1826995;77;21107;-61
2021/03/05 03:40:21;;;;;;;38.80;19.65;;;;;;;2.57;77.82;98485.02;1821577;79;21692;-60
2021/03/05 03:42:50;;;;;;;40.52;18.85;;;;;;;2.51;78.15;98484.78;1822338;77;21130;-62
2021/03/05 03:45:21;;;;;;;46.05;19.60;;;;;;;2.53;78.23;98482.30;1836226;77;21157;-60
2021/03/05 03:47:50;;;;;;;40.25;18.52;;;;;;;2.59;78.49;98481.22;1814251;79;21162;-63
2021/03/05 03:50:26;;;;;;;40.33;19.02;;;;;;;2.66;78.58;98488.27;1812820;79;21146;-59
2021/03/05 03:53:14;;;;;;;39.60;17.85;;;;;;;2.69;78.78;98484.55;1812120;79;21300;-63
2021/03/05 03:55:44;;;;;;;44.13;19.52;;;;;;;2.70;78.90;98488.84;1812586;79;21158;-61
2021/03/05 03:58:14;;;;;;;44.83;20.37;;;;;;;2.71;79.12;98482.92;1813179;79;21154;-63
2021/03/05 04:00:45;;;;;;;47.73;19.52;;;;;;;2.74;79.47;98486.84;1813170;79;21130;-60
2021/03/05 04:03:14;;;;;;;43.48;19.25;;;;;;;2.69;79.98;98489.64;1813186;79;21755;-62
2021/03/05 04:05:45;;;;;;;43.98;19.30;;;;;;;2.61;80.42;98491.92;1812996;79;21276;-59
2021/03/05 04:08:17;;;;;;;49.25;20.95;;;;;;;2.53;80.81;98497.16;1810232;79;21256;-61
2021/03/05 04:10:45;;;;;;;48.42;21.00;;;;;;;2.46;81.70;98492.66;1812966;79;21175;-61
2021/03/05 04:13:14;;;;;;;42.88;20.08;;;;;;;2.46;82.19;98499.03;1812967;79;21127;-61
2021/03/05 04:15:42;;;;;;;40.50;20.77;;;;;;;2.48;82.50;98496.55;1813168;79;21139;-61
2021/03/05 04:18:10;;;;;;;47.45;21.95;;;;;;;2.54;82.75;98503.12;1813255;78;21207;-61
2021/03/05 04:20:39;;;;;;;45.83;21.55;;;;;;;2.59;82.68;98510.10;1812877;79;21119;-63
2021/03/05 04:23:07;;;;;;;51.40;24.80;;;;;;;2.62;82.63;98509.38;1826109;78;21144;-60
2021/03/05 04:25:35;;;;;;;43.02;20.10;;;;;;;2.66;82.41;98502.28;1729704;81;21307;-62
2021/03/05 04:28:03;;;;;;;43.78;20.17;;;;;;;2.71;82.54;98495.66;1820014;78;21554;-61
2021/03/05 04:30:31;;;;;;;47.90;23.12;;;;;;;2.78;82.44;98496.34;1822089;78;21127;-63
2021/03/05 04:32:59;;;;;;;47.05;21.85;;;;;;;2.76;82.42;98499.23;1817503;78;21565;-62
2021/03/05 04:35:26;;;;;;;49.15;21.75;;;;;;;2.80;82.39;98498.53;1812599;77;21172;-64
2021/03/05 04:37:54;;;;;;;43.17;20.62;;;;;;;2.83;82.31;98497.36;1812721;79;21685;-61
2021/03/05 04:40:21;;;;;;;41.92;20.75;;;;;;;2.82;82.13;98499.46;1813190;79;21117;-61
2021/03/05 04:42:50;;;;;;;46.20;22.22;;;;;;;2.79;82.12;98506.98;1815603;78;21270;-62
2021/03/05 04:45:18;;;;;;;43.68;20.77;;;;;;;2.76;82.04;98503.05;1813857;78;21124;-62
2021/03/05 04:47:45;;;;;;;41.42;19.52;;;;;;;2.80;81.99;98508.73;1845915;77;21576;-64
2021/03/05 04:50:13;;;;;;;45.03;21.37;;;;;;;2.85;81.79;98506.34;1774524;81;21201;-63
2021/03/05 04:52:41;;;;;;;43.20;21.70;;;;;;;2.90;81.64;98501.38;1815025;78;21296;-59
2021/03/05 04:55:10;;;;;;;44.93;22.02;;;;;;;2.93;81.51;98511.70;1756259;80;21296;-61
2021/03/05 04:57:38;;;;;;;48.52;21.60;;;;;;;2.95;81.56;98504.95;1817099;78;21131;-61
2021/03/05 05:00:07;;;;;;;50.20;22.35;;;;;;;2.97;81.27;98511.83;1826228;78;21264;-61
2021/03/05 05:02:35;;;;;;;45.78;21.90;;;;;;;2.93;81.34;98518.93;1813079;79;21646;-62
2021/03/05 05:05:03;;;;;;;46.18;21.17;;;;;;;2.89;81.44;98520.91;1812786;78;21154;-65
2021/03/05 05:07:31;;;;;;;49.93;21.40;;;;;;;2.90;81.55;98519.22;1817820;78;21166;-60
2021/03/05 05:09:59;;;;;;;43.42;21.12;;;;;;;2.90;81.45;98526.86;1846015;77;21264;-60
2021/03/05 05:12:26;;;;;;;49.58;21.45;;;;;;;2.88;81.65;98525.55;1846192;77;21166;-62
2021/03/05 05:14:54;;;;;;;42.58;18.73;;;;;;;2.83;81.94;98530.48;1846180;78;21268;-63
2021/03/05 05:17:22;;;;;;;42.40;20.30;;;;;;;2.78;82.05;98534.56;1834392;78;21575;-62
2021/03/05 05:23:54;;;;;;;41.13;18.15;;;;;;;2.52;82.89;98536.58;1814282;77;22200;-61
2021/03/05 05:26:22;;;;;;;43.85;20.23;;;;;;;2.39;83.44;98542.53;1769557;80;21138;-61
2021/03/05 05:28:51;;;;;;;46.48;20.23;;;;;;;2.37;83.67;98540.73;1777674;80;21160;-62
2021/03/05 05:31:18;;;;;;;40.98;19.40;;;;;;;2.37;83.85;98536.51;1776093;79;21343;-63
2021/03/05 05:33:47;;;;;;;39.78;18.40;;;;;;;2.42;83.95;98534.52;1784978;78;21158;-60
2021/03/05 05:36:15;;;;;;;44.58;20.02;;;;;;;2.49;83.80;98542.84;1793461;80;21288;-65
2021/03/05 05:38:43;;;;;;;47.65;21.48;;;;;;;2.52;83.57;98544.22;1780078;80;21281;-63
2021/03/05 05:41:12;;;;;;;45.83;20.97;;;;;;;2.52;83.56;98545.49;1777243;80;21249;-64
2021/03/05 05:43:40;;;;;;;46.90;20.92;;;;;;;2.49;83.71;98542.84;1775809;80;21162;-63
2021/03/05 05:46:09;;;;;;;50.15;23.27;;;;;;;2.52;83.73;98548.04;1778028;80;21142;-63
2021/03/05 05:48:39;;;;;;;42.88;19.65;;;;;;;2.55;83.79;98551.99;1786637;80;21170;-60
2021/03/05 05:51:29;;;;;;;43.92;21.25;;;;;;;2.62;83.54;98550.13;1793550;80;21119;-61
2021/03/05 05:54:08;;;;;;;45.88;20.75;;;;;;;2.68;83.42;98553.30;1793479;80;21166;-62
2021/03/05 05:56:39;;;;;;;54.58;24.37;;;;;;;2.73;83.38;98561.97;1793363;80;21283;-63
2021/03/05 05:59:09;;;;;;;52.20;23.62;;;;;;;2.76;83.19;98567.17;1793386;80;21260;-63
2021/03/05 06:01:39;;;;;;;52.90;24.40;;;;;;;2.69;83.18;98564.80;1793286;80;21126;-61
2021/03/05 06:04:08;;;;;;;58.45;26.82;;;;;;;2.71;83.34;98567.00;1792443;80;21162;-62
2021/03/05 06:06:39;;;;;;;48.92;23.42;;;;;;;2.78;83.20;98568.95;1784237;80;21684;-61
2021/03/05 06:09:07;;;;;;;;;;;;;;;2.85;82.95;98570.43;1762220;80;21130;-60
2021/03/05 06:11:42;;;;;;;53.42;24.77;;;;;;;2.87;82.83;98568.40;1791435;80;20134;-63
2021/03/05 06:14:13;;;;;;;53.10;24.55;;;;;;;2.89;82.38;98574.42;1764451;80;21304;-61
2021/03/05 06:17:01;;;;;;;52.08;22.70;;;;;;;2.91;82.47;98570.66;1770781;80;21118;-62
2021/03/05 06:19:30;;;;;;;44.77;20.60;;;;;;;2.98;82.17;98577.30;1781456;80;21389;-61
2021/03/05 06:21:58;;;;;;;48.50;21.52;;;;;;;3.02;81.25;98579.12;1768734;80;21290;-64
2021/03/05 06:24:29;;;;;;;45.50;21.20;;;;;;;3.04;81.18;98586.84;1780550;79;21153;-63
2021/03/05 06:27:00;;;;;;;40.23;19.27;;;;;;;3.07;81.06;98584.39;1780793;80;21152;-62
2021/03/05 06:29:47;;;;;;;44.03;21.27;;;;;;;3.13;80.67;98585.89;1770122;80;21134;-61
2021/03/05 06:32:18;;;;;;;47.13;20.88;;;;;;;3.17;80.62;98588.98;1777184;80;21260;-61
2021/03/05 06:34:50;;;;;;;41.35;20.15;;;;;;;3.23;80.21;98587.05;1772756;80;21277;-61
2021/03/05 06:37:23;;;;;;;41.80;19.73;;;;;;;3.24;80.01;98589.66;1777739;80;21212;-60
2021/03/05 06:40:05;;;;;;;46.23;19.98;;;;;;;3.28;79.74;98593.16;1773233;79;21685;-60
2021/03/05 06:42:54;;;;;;;40.48;19.57;;;;;;;3.35;79.33;98592.98;1761470;80;21304;-59
2021/03/05 06:45:26;;;;;;;38.38;18.60;;;;;;;3.41;79.08;98591.51;1774718;80;21174;-62
2021/03/05 06:48:08;;;;;;;38.42;18.17;;;;;;;3.53;78.50;98589.75;1791002;79;21144;-61
2021/03/05 06:50:43;;;;;;;34.40;17.15;;;;;;;3.61;77.94;98591.27;1784662;80;21154;-63
2021/03/05 06:53:25;;;;;;;34.70;17.55;;;;;;;3.62;77.38;98591.34;1762185;80;21127;-63
2021/03/05 06:55:53;;;;;;;37.17;16.50;;;;;;;3.67;77.11;98600.42;1773650;80;21154;-63
2021/03/05 06:58:22;;;;;;;37.28;17.73;;;;;;;3.72;76.65;98603.98;1780250;79;21162;-61
2021/03/05 07:01:02;;;;;;;36.15;17.32;;;;;;;3.77;76.16;98600.31;1772753;80;21159;-63
2021/03/05 07:03:30;;;;;;;39.40;18.15;;;;;;;3.81;76.01;98594.47;1768222;80;21212;-64
2021/03/05 07:05:58;;;;;;;30.40;14.68;;;;;;;3.89;75.90;98604.13;1713458;82;21170;-62
2021/03/05 07:08:44;;;;;;;39.18;17.90;;;;;;;3.96;75.16;98603.88;1712025;82;21178;-63
2021/03/05 07:11:43;;;;;;;35.65;14.03;;;;;;;4.03;74.77;98599.43;1730305;81;21134;-61
2021/03/05 07:14:12;;;;;;;33.02;14.98;;;;;;;4.08;74.30;98604.27;1737775;81;21597;-61
2021/03/05 07:16:45;;;;;;;27.87;13.20;;;;;;;4.18;73.67;98606.70;1725003;83;21178;-62
2021/03/05 07:19:17;;;;;;;28.02;12.85;;;;;;;4.21;72.33;98603.38;1724061;83;21166;-61
2021/03/05 07:21:49;;;;;;;26.55;12.20;;;;;;;4.17;72.03;98606.64;1724020;82;21147;-61
2021/03/05 07:24:20;;;;;;;27.20;13.13;;;;;;;4.14;71.94;98602.30;1712743;82;21166;-61
2021/03/05 07:27:04;;;;;;;32.78;14.20;;;;;;;4.09;72.04;98604.71;1721149;82;21306;-62
2021/03/05 07:29:46;;;;;;;33.53;15.10;;;;;;;4.10;72.02;98610.30;1715307;82;21111;-62
2021/03/05 07:32:23;;;;;;;29.63;14.98;;;;;;;4.15;72.00;98613.00;1719940;83;21301;-62
2021/03/05 07:35:00;;;;;;;29.57;14.23;;;;;;;4.16;71.90;98610.89;1756686;80;21134;-61
2021/03/05 07:37:48;;;;;;;27.98;13.80;;;;;;;4.28;72.02;98610.41;1768957;80;21161;-63
2021/03/05 07:40:18;;;;;;;29.72;15.68;;;;;;;4.43;71.76;98610.00;1767581;80;21564;-62
2021/03/05 07:42:49;;;;;;;34.83;16.25;;;;;;;4.48;70.90;98615.69;1759952;80;21145;-65
2021/03/05 07:45:17;;;;;;;27.32;13.72;;;;;;;4.46;70.96;98614.77;1771761;80;21330;-62
2021/03/05 07:47:48;;;;;;;23.32;11.85;;;;;;;4.52;70.12;98610.25;1759661;80;21289;-64
2021/03/05 07:50:24;;;;;;;27.37;12.47;;;;;;;4.56;69.46;98615.50;1788212;79;21150;-65
2021/03/05 07:52:58;;;;;;;23.77;11.60;;;;;;;4.61;69.02;98623.72;1758322;80;21272;-64
2021/03/05 07:55:41;;;;;;;21.90;11.85;;;;;;;4.63;68.15;98619.50;1769959;80;21154;-62
2021/03/05 07:58:10;;;;;;;25.27;12.85;;;;;;;4.62;68.27;98616.50;1756706;80;21300;-65
2021/03/05 08:00:53;;;;;;;26.50;12.60;;;;;;;4.61;68.30;98616.91;1769773;80;21305;-61
2021/03/05 08:03:25;;;;;;;24.43;12.15;;;;;;;4.61;68.42;98616.05;1759596;80;21262;-63
2021/03/05 08:05:56;;;;;;;25.32;12.58;;;;;;;4.51;68.39;98613.64;1743668;80;21127;-62
2021/03/05 08:08:26;;;;;;;23.90;12.20;;;;;;;4.49;68.39;98617.41;1762713;80;21141;-63
2021/03/05 08:11:01;;;;;;;25.82;13.13;;;;;;;4.51;68.39;98613.22;1768692;80;21107;-60
2021/03/05 08:13:48;;;;;;;25.30;13.00;;;;;;;4.54;68.38;98612.45;1769239;80;21179;-66
2021/03/05 08:16:36;;;;;;;25.52;13.08;;;;;;;4.61;68.30;98608.39;1777526;80;21189;-63
2021/03/05 08:19:14;;;;;;;24.45;11.60;;;;;;;4.72;68.05;98617.22;1768475;80;21708;-63
2021/03/05 08:22:01;;;;;;;26.70;12.68;;;;;;;4.78;67.61;98618.27;1784259;80;21155;-63
2021/03/05 08:24:39;;;;;;;27.60;13.05;;;;;;;4.90;67.74;98624.53;1761612;81;21162;-63
2021/03/05 08:27:15;;;;;;;23.35;12.55;;;;;;;5.13;67.35;98629.86;1705101;84;21287;-63
2021/03/05 08:30:11;;;;;;;23.62;11.65;;;;;;;5.44;66.21;98622.61;1676108;84;21306;-70
2021/03/05 08:32:51;;;;;;;23.60;11.88;;;;;;;5.58;65.44;98620.38;1756916;81;21158;-60
2021/03/05 08:35:30;;;;;;;23.42;12.35;;;;;;;5.70;64.50;98618.55;1765103;81;21151;-62
2021/03/05 08:38:06;;;;;;;25.12;12.43;;;;;;;5.76;64.20;98616.13;1709777;83;21588;-62
2021/03/05 08:40:48;;;;;;;26.75;12.30;;;;;;;5.88;64.41;98616.86;1775925;80;21170;-61
2021/03/05 08:43:27;;;;;;;21.33;11.97;;;;;;;6.07;63.50;98606.64;1748158;82;21155;-61
2021/03/05 08:46:06;;;;;;;22.52;11.63;;;;;;;6.21;63.15;98605.27;1765709;80;21131;-63
2021/03/05 08:48:42;;;;;;;19.37;10.28;;;;;;;6.47;62.25;98616.09;1777066;80;21293;-65
2021/03/05 08:51:22;;;;;;;25.97;12.85;;;;;;;6.53;60.54;98617.91;1769050;81;21119;-62
2021/03/05 08:53:53;;;;;;;23.30;11.15;;;;;;;6.47;60.43;98626.34;1764684;81;21351;-62
2021/03/05 08:56:27;;;;;;;26.95;12.68;;;;;;;6.46;60.20;98623.73;1711223;84;21174;-62
2021/03/05 08:59:01;;;;;;;24.10;12.58;;;;;;;6.47;59.83;98630.61;1760456;81;21284;-64
2021/03/05 09:01:40;;;;;;;22.80;12.07;;;;;;;6.50;59.65;98634.09;1760571;81;21171;-64
2021/03/05 09:04:17;;;;;;;24.65;11.50;;;;;;;6.57;59.35;98637.66;1761513;80;21284;-62
2021/03/05 09:06:57;;;;;;;19.55;10.28;;;;;;;6.70;58.89;98631.95;1761445;81;21234;-62
2021/03/05 09:09:33;;;;;;;20.85;10.75;;;;;;;7.18;58.04;98632.49;1744248;81;21134;-62
2021/03/05 09:12:14;;;;;;;21.97;11.90;;;;;;;7.70;56.22;98630.41;1763639;80;21563;-62
2021/03/05 09:14:48;;;;;;;22.17;11.50;;;;;;;8.00;55.75;98634.77;1758690;81;21147;-61
2021/03/05 09:17:15;;;;;;;22.22;11.68;;;;;;;8.20;54.91;98638.94;1756145;81;21139;-62
2021/03/05 09:19:47;;;;;;;23.40;11.55;;;;;;;8.13;54.35;98634.96;1760107;81;21306;-63
2021/03/05 09:22:24;;;;;;;23.83;12.50;;;;;;;8.02;54.80;98639.52;1744894;81;21145;-62
2021/03/05 09:25:03;;;;;;;22.55;11.90;;;;;;;8.13;54.98;98641.39;1755262;81;21110;-62
2021/03/05 09:27:38;;;;;;;23.67;11.75;;;;;;;8.22;54.75;98644.11;1769229;80;21326;-63
2021/03/05 09:30:17;;;;;;;23.25;12.20;;;;;;;8.29;54.54;98650.19;1767124;80;21119;-62
2021/03/05 09:32:52;;;;;;;24.23;11.12;;;;;;;8.21;54.31;98650.08;1758696;80;21114;-61
2021/03/05 09:35:29;;;;;;;20.88;11.20;;;;;;;8.03;54.17;98650.22;1756076;80;21206;-63
2021/03/05 09:37:58;;;;;;;22.58;11.10;;;;;;;7.68;53.90;98654.77;1756696;82;21177;-62
2021/03/05 09:40:28;;;;;;;21.40;10.72;;;;;;;7.13;54.54;98661.05;1756486;81;21147;-62
2021/03/05 09:42:59;;;;;;;18.87;9.85;;;;;;;6.89;55.43;98663.11;1756678;81;21312;-62
2021/03/05 09:45:48;;;;;;;19.98;9.90;;;;;;;6.67;55.25;98675.91;1756640;80;21118;-63
2021/03/05 09:48:32;;;;;;;19.42;9.38;;;;;;;6.43;55.79;98672.38;1756708;82;21312;-63
2021/03/05 09:51:08;;;;;;;21.90;9.98;;;;;;;6.23;56.55;98670.62;1756668;82;21115;-62
2021/03/05 09:53:38;;;;;;;21.70;10.08;;;;;;;6.18;57.10;98673.50;1756526;80;21146;-61
2021/03/05 09:56:08;;;;;;;18.57;10.28;;;;;;;6.17;57.46;98679.46;1756725;80;21148;-62
2021/03/05 09:58:37;;;;;;;20.72;10.35;;;;;;;6.07;57.90;98677.95;1756516;82;21186;-62
2021/03/05 10:01:05;;;;;;;19.32;10.32;;;;;;;5.94;58.43;98675.06;1756393;82;21159;-63
2021/03/05 10:03:35;;;;;;;15.65;8.38;;;;;;;5.72;59.17;98684.72;1756664;80;21378;-62
2021/03/05 10:06:03;;;;;;;15.93;8.00;;;;;;;5.58;59.22;98690.77;1756458;80;21118;-62
2021/03/05 10:08:31;;;;;;;13.75;6.87;;;;;;;5.46;59.61;98693.42;1756416;82;21146;-62
2021/03/05 10:11:09;;;;;;;16.93;8.98;;;;;;;5.37;59.74;98684.68;1762880;79;21144;-62
2021/03/05 10:13:54;;;;;;;18.90;9.25;;;;;;;5.38;60.43;98691.52;1762375;80;21324;-61
2021/03/05 10:16:36;;;;;;;18.12;8.83;;;;;;;5.41;60.78;98690.73;1763919;80;21251;-62
2021/03/05 10:19:14;;;;;;;18.65;10.55;;;;;;;5.41;61.03;98682.64;1762770;80;21119;-63
2021/03/05 10:21:53;;;;;;;19.98;10.00;;;;;;;5.28;61.10;98688.67;1786778;80;21303;-63
2021/03/05 10:24:27;;;;;;;20.88;11.12;;;;;;;5.21;61.45;98695.30;1766131;80;21137;-62
2021/03/05 10:29:49;;;;;;;21.50;10.90;;;;;;;4.84;62.70;98704.91;1769530;80;21135;-62
2021/03/05 10:32:39;;;;;;;20.40;10.53;;;;;;;4.95;63.25;98699.27;1775232;80;21210;-61
2021/03/05 10:35:15;;;;;;;22.93;10.75;;;;;;;4.96;63.90;98701.41;1774296;80;21178;-62
2021/03/05 10:37:44;;;;;;;27.10;13.78;;;;;;;4.93;65.39;98700.91;1707523;83;21588;-63
2021/03/05 10:40:14;;;;;;;32.60;13.83;;;;;;;4.61;66.66;98697.84;1764649;79;21324;-62
2021/03/05 10:42:43;;;;;;;23.42;12.10;;;;;;;4.44;68.50;98702.00;1767331;80;21254;-62
2021/03/05 10:45:12;;;;;;;22.00;11.93;;;;;;;4.39;69.39;98700.99;1767007;79;21306;-62
2021/03/05 10:47:39;;;;;;;28.83;12.75;;;;;;;4.45;69.23;98698.65;1731760;82;21102;-62
2021/03/05 10:50:10;;;;;;;24.05;11.95;;;;;;;4.36;69.40;98700.91;1768750;80;21280;-62
2021/03/05 10:52:37;;;;;;;26.60;13.75;;;;;;;4.14;70.20;98698.93;1770044;80;21151;-63
2021/03/05 10:55:08;;;;;;;25.45;12.93;;;;;;;4.03;70.55;98695.17;1768656;80;21164;-61
2021/03/05 10:57:39;;;;;;;24.52;12.68;;;;;;;4.15;70.95;98701.10;1773802;80;21154;-62
2021/03/05 11:00:08;;;;;;;26.20;12.28;;;;;;;4.42;70.72;98701.08;1763248;80;21161;-62
2021/03/05 11:02:38;;;;;;;31.27;15.83;;;;;;;4.68;70.41;98704.84;1774359;80;21151;-62
2021/03/05 11:05:09;;;;;;;23.75;12.88;;;;;;;4.69;70.17;98701.48;1767707;79;21153;-61
2021/03/05 11:07:36;;;;;;;28.90;13.50;;;;;;;4.59;70.42;98700.75;1768962;80;21206;-62
2021/03/05 11:10:05;;;;;;;26.15;14.03;;;;;;;4.68;70.67;98703.56;1768451;80;21160;-61
2021/03/05 11:12:33;;;;;;;24.00;11.70;;;;;;;4.68;70.44;98698.45;1756566;80;21167;-61
2021/03/05 11:15:03;;;;;;;23.55;11.55;;;;;;;4.54;70.66;98695.49;1756766;80;21144;-61
2021/03/05 11:17:31;;;;;;;22.48;11.65;;;;;;;4.70;70.59;98701.92;1780237;80;21143;-61
2021/03/05 11:20:00;;;;;;;21.07;11.95;;;;;;;5.00;69.77;98702.83;1768942;80;21294;-61
2021/03/05 11:22:28;;;;;;;21.50;12.13;;;;;;;5.26;69.15;98703.97;1767354;80;21154;-62
2021/03/05 11:24:58;;;;;;;24.43;11.85;;;;;;;5.42;68.88;98705.28;1756433;80;21300;-62
2021/03/05 11:27:25;;;;;;;18.70;10.13;;;;;;;5.59;68.63;98708.27;1756260;80;21148;-61
2021/03/05 11:29:53;;;;;;;23.87;11.68;;;;;;;5.72;67.12;98710.32;1781595;79;21281;-61
2021/03/05 11:32:21;;;;;;;22.48;10.63;;;;;;;5.70;66.82;98713.28;1765775;80;21554;-61
2021/03/05 11:34:49;;;;;;;25.32;12.43;;;;;;;5.58;67.36;98709.97;1764150;80;21293;-61
2021/03/05 11:37:17;;;;;;;21.23;11.10;;;;;;;5.44;68.07;98714.73;1765069;80;21111;-62
2021/03/05 11:39:45;;;;;;;23.07;12.25;;;;;;;5.34;68.71;98724.27;1772346;79;21279;-62
2021/03/05 11:42:13;;;;;;;21.73;11.90;;;;;;;5.18;69.69;98725.50;1777066;80;21205;-62
2021/03/05 11:44:41;;;;;;;23.42;13.30;;;;;;;4.98;70.27;98721.08;1773820;80;21154;-61
2021/03/05 11:47:10;;;;;;;24.87;11.28;;;;;;;4.79;71.42;98723.52;1750294;80;21138;-62
2021/03/05 11:49:38;;;;;;;24.85;13.10;;;;;;;4.67;72.83;98711.64;1760939;80;21162;-62
2021/03/05 11:52:07;;;;;;;28.42;13.72;;;;;;;4.72;73.68;98720.73;1769097;80;21144;-61
2021/03/05 11:54:40;;;;;;;21.87;11.20;;;;;;;4.67;73.76;98724.42;1757269;80;21161;-62
2021/03/05 11:57:08;;;;;;;21.52;10.88;;;;;;;4.60;73.47;98720.36;1779491;80;21277;-61